sensor_id;sensor_type;location;lat;lon;timestamp;pressure;altitude;pressure_sealevel;temperature;humidity
78673;BME280;67988;60.086;30.354;2023-06-22T00:02:18;101137.47;;;22.19;45.54
78673;BME280;67988;60.086;30.354;2023-06-22T00:04:45;101137.81;;;22.16;45.56
78673;BME280;67988;60.086;30.354;2023-06-22T00:07:12;101131.25;;;22.10;45.42
78673;BME280;67988;60.086;30.354;2023-06-22T00:09:41;101126.13;;;22.01;45.90
78673;BME280;67988;60.086;30.354;2023-06-22T00:12:08;101124.59;;;21.98;45.97
78673;BME280;67988;60.086;30.354;2023-06-22T00:14:35;101111.09;;;21.90;46.35
78673;BME280;67988;60.086;30.354;2023-06-22T00:17:03;101124.59;;;21.98;46.37
78673;BME280;67988;60.086;30.354;2023-06-22T00:19:30;101117.53;;;21.97;46.32
78673;BME280;67988;60.086;30.354;2023-06-22T00:21:58;101121.88;;;21.98;46.21
78673;BME280;67988;60.086;30.354;2023-06-22T00:24:25;101119.19;;;21.98;45.90
78673;BME280;67988;60.086;30.354;2023-06-22T00:26:54;101108.72;;;21.95;46.48
78673;BME280;67988;60.086;30.354;2023-06-22T00:29:21;101104.66;;;21.91;46.61
78673;BME280;67988;60.086;30.354;2023-06-22T00:31:48;101106.41;;;21.84;46.91
78673;BME280;67988;60.086;30.354;2023-06-22T00:34:15;101104.94;;;21.82;46.74
78673;BME280;67988;60.086;30.354;2023-06-22T00:36:42;101105.28;;;21.79;47.09
78673;BME280;67988;60.086;30.354;2023-06-22T00:39:09;101110.00;;;21.62;47.95
78673;BME280;67988;60.086;30.354;2023-06-22T00:41:37;101104.06;;;21.44;48.53
78673;BME280;67988;60.086;30.354;2023-06-22T00:44:05;101108.97;;;21.09;49.73
78673;BME280;67988;60.086;30.354;2023-06-22T00:46:34;101112.25;;;20.97;50.27
78673;BME280;67988;60.086;30.354;2023-06-22T00:49:01;101102.97;;;20.91;50.37
78673;BME280;67988;60.086;30.354;2023-06-22T00:51:31;101101.53;;;20.80;51.02
78673;BME280;67988;60.086;30.354;2023-06-22T00:53:58;101111.84;;;20.77;50.91
78673;BME280;67988;60.086;30.354;2023-06-22T00:56:26;101106.84;;;20.66;51.71
78673;BME280;67988;60.086;30.354;2023-06-22T00:58:55;101101.25;;;20.67;51.42
78673;BME280;67988;60.086;30.354;2023-06-22T01:01:25;101100.09;;;20.62;51.58
78673;BME280;67988;60.086;30.354;2023-06-22T01:03:52;101100.78;;;20.56;52.13
78673;BME280;67988;60.086;30.354;2023-06-22T01:06:28;101087.19;;;20.33;52.46
78673;BME280;67988;60.086;30.354;2023-06-22T01:09:02;101108.06;;;20.47;52.52
78673;BME280;67988;60.086;30.354;2023-06-22T01:11:37;101102.34;;;20.42;52.33
78673;BME280;67988;60.086;30.354;2023-06-22T01:14:12;101106.09;;;20.33;53.27
78673;BME280;67988;60.086;30.354;2023-06-22T01:16:44;101103.88;;;20.36;52.96
78673;BME280;67988;60.086;30.354;2023-06-22T01:19:24;101110.31;;;20.27;53.59
78673;BME280;67988;60.086;30.354;2023-06-22T01:21:56;101103.41;;;20.17;53.87
78673;BME280;67988;60.086;30.354;2023-06-22T01:24:30;101103.41;;;20.17;53.64
78673;BME280;67988;60.086;30.354;2023-06-22T01:27:11;101105.44;;;20.07;54.26
78673;BME280;67988;60.086;30.354;2023-06-22T01:29:41;101105.44;;;20.07;54.20
78673;BME280;67988;60.086;30.354;2023-06-22T01:32:10;101112.03;;;20.12;54.32
78673;BME280;67988;60.086;30.354;2023-06-22T01:34:38;101109.66;;;20.17;53.87
78673;BME280;67988;60.086;30.354;2023-06-22T01:37:07;101105.75;;;20.20;53.68
78673;BME280;67988;60.086;30.354;2023-06-22T01:39:35;101067.63;;;19.98;53.64
78673;BME280;67988;60.086;30.354;2023-06-22T01:42:03;101099.16;;;20.14;53.63
78673;BME280;67988;60.086;30.354;2023-06-22T01:44:32;101102.06;;;20.13;54.24
78673;BME280;67988;60.086;30.354;2023-06-22T01:47:01;101107.13;;;20.08;54.78
78673;BME280;67988;60.086;30.354;2023-06-22T01:49:29;101103.41;;;20.09;53.95
78673;BME280;67988;60.086;30.354;2023-06-22T01:51:56;101096.50;;;20.06;54.23
78673;BME280;67988;60.086;30.354;2023-06-22T01:54:24;101097.69;;;19.95;54.86
78673;BME280;67988;60.086;30.354;2023-06-22T01:56:51;101098.53;;;19.96;54.83
78673;BME280;67988;60.086;30.354;2023-06-22T01:59:25;101091.78;;;20.00;55.21
78673;BME280;67988;60.086;30.354;2023-06-22T02:01:58;101090.56;;;20.02;55.02
78673;BME280;67988;60.086;30.354;2023-06-22T02:04:33;101088.22;;;19.99;55.19
78673;BME280;67988;60.086;30.354;2023-06-22T02:07:05;101093.31;;;19.94;55.48
78673;BME280;67988;60.086;30.354;2023-06-22T02:09:38;101082.50;;;19.94;55.66
78673;BME280;67988;60.086;30.354;2023-06-22T02:12:11;101090.09;;;19.99;55.30
78673;BME280;67988;60.086;30.354;2023-06-22T02:14:39;101087.41;;;19.91;55.71
78673;BME280;67988;60.086;30.354;2023-06-22T02:17:09;101082.50;;;19.94;55.61
78673;BME280;67988;60.086;30.354;2023-06-22T02:19:38;101080.50;;;19.96;55.82
78673;BME280;67988;60.086;30.354;2023-06-22T02:22:05;101079.28;;;19.99;55.67
78673;BME280;67988;60.086;30.354;2023-06-22T02:24:32;101082.34;;;19.88;56.27
78673;BME280;67988;60.086;30.354;2023-06-22T02:27:00;101082.50;;;19.94;56.25
78673;BME280;67988;60.086;30.354;2023-06-22T02:29:27;101081.81;;;20.00;56.13
78673;BME280;67988;60.086;30.354;2023-06-22T02:31:54;101073.19;;;20.05;55.78
78673;BME280;67988;60.086;30.354;2023-06-22T02:34:22;101068.66;;;19.97;55.79
78673;BME280;67988;60.086;30.354;2023-06-22T02:36:52;101073.03;;;19.98;56.27
78673;BME280;67988;60.086;30.354;2023-06-22T02:39:20;101075.91;;;19.97;56.15
78673;BME280;67988;60.086;30.354;2023-06-22T02:41:49;101076.59;;;19.99;56.21
78673;BME280;67988;60.086;30.354;2023-06-22T02:44:16;101089.44;;;19.81;56.74
78673;BME280;67988;60.086;30.354;2023-06-22T02:46:43;101105.25;;;19.35;58.86
78673;BME280;67988;60.086;30.354;2023-06-22T02:49:12;101106.59;;;19.23;59.19
78673;BME280;67988;60.086;30.354;2023-06-22T02:51:44;101071.47;;;19.07;59.23
78673;BME280;67988;60.086;30.354;2023-06-22T02:54:13;101102.72;;;19.34;58.62
78673;BME280;67988;60.086;30.354;2023-06-22T02:56:41;101106.94;;;19.20;59.41
78673;BME280;67988;60.086;30.354;2023-06-22T02:59:09;101103.13;;;18.89;60.56
78673;BME280;67988;60.086;30.354;2023-06-22T03:01:38;101077.09;;;18.71;60.49
78673;BME280;67988;60.086;30.354;2023-06-22T03:04:14;101100.25;;;18.90;60.68
78673;BME280;67988;60.086;30.354;2023-06-22T03:06:41;101086.31;;;19.03;59.63
78673;BME280;67988;60.086;30.354;2023-06-22T03:09:08;101095.44;;;19.18;59.13
78673;BME280;67988;60.086;30.354;2023-06-22T03:11:37;101099.34;;;19.32;58.94
78673;BME280;67988;60.086;30.354;2023-06-22T03:14:04;101108.97;;;19.42;58.62
78673;BME280;67988;60.086;30.354;2023-06-22T03:16:32;101110.53;;;19.53;58.48
78673;BME280;67988;60.086;30.354;2023-06-22T03:18:59;101098.38;;;19.65;58.08
78673;BME280;67988;60.086;30.354;2023-06-22T03:21:28;101097.53;;;19.81;57.31
78673;BME280;67988;60.086;30.354;2023-06-22T03:23:55;101095.53;;;19.91;57.01
78673;BME280;67988;60.086;30.354;2023-06-22T03:26:22;101080.47;;;20.04;56.81
78673;BME280;67988;60.086;30.354;2023-06-22T03:28:53;101084.97;;;20.20;56.21
78673;BME280;67988;60.086;30.354;2023-06-22T03:31:21;101069.59;;;20.29;55.92
78673;BME280;67988;60.086;30.354;2023-06-22T03:33:48;101078.00;;;20.42;55.89
78673;BME280;67988;60.086;30.354;2023-06-22T03:36:15;101088.28;;;20.55;55.37
78673;BME280;67988;60.086;30.354;2023-06-22T03:38:45;101071.00;;;20.64;55.39
78673;BME280;67988;60.086;30.354;2023-06-22T03:41:12;101067.97;;;20.67;55.26
78673;BME280;67988;60.086;30.354;2023-06-22T03:43:39;101066.59;;;20.71;55.62
78673;BME280;67988;60.086;30.354;2023-06-22T03:46:08;101058.41;;;20.79;55.49
78673;BME280;67988;60.086;30.354;2023-06-22T03:48:35;101061.09;;;20.87;55.24
78673;BME280;67988;60.086;30.354;2023-06-22T03:51:02;101058.38;;;20.87;55.49
78673;BME280;67988;60.086;30.354;2023-06-22T03:53:29;101060.84;;;20.97;54.92
78673;BME280;67988;60.086;30.354;2023-06-22T03:55:56;101057.81;;;21.00;54.73
78673;BME280;67988;60.086;30.354;2023-06-22T03:58:24;101066.03;;;21.14;54.45
78673;BME280;67988;60.086;30.354;2023-06-22T04:00:52;101038.06;;;21.14;53.93
78673;BME280;67988;60.086;30.354;2023-06-22T04:03:21;101059.34;;;21.48;53.34
78673;BME280;67988;60.086;30.354;2023-06-22T04:05:47;101052.38;;;21.68;52.53
78673;BME280;67988;60.086;30.354;2023-06-22T04:08:15;101054.09;;;21.84;52.28
78673;BME280;67988;60.086;30.354;2023-06-22T04:10:42;101046.06;;;21.90;52.52
78673;BME280;67988;60.086;30.354;2023-06-22T04:13:09;101045.66;;;22.01;51.64
78673;BME280;67988;60.086;30.354;2023-06-22T04:15:36;101046.88;;;22.14;51.54
78673;BME280;67988;60.086;30.354;2023-06-22T04:18:03;101047.16;;;22.19;51.50
78673;BME280;67988;60.086;30.354;2023-06-22T04:20:32;101050.34;;;22.22;51.42
78673;BME280;67988;60.086;30.354;2023-06-22T04:22:59;101050.16;;;22.24;51.45
78673;BME280;67988;60.086;30.354;2023-06-22T04:25:26;101036.50;;;22.02;51.95
78673;BME280;67988;60.086;30.354;2023-06-22T04:27:53;101042.47;;;22.13;51.72
78673;BME280;67988;60.086;30.354;2023-06-22T04:30:20;101042.66;;;22.11;52.13
78673;BME280;67988;60.086;30.354;2023-06-22T04:32:47;101043.06;;;22.08;51.89
78673;BME280;67988;60.086;30.354;2023-06-22T04:35:21;101045.47;;;22.18;51.66
78673;BME280;67988;60.086;30.354;2023-06-22T04:37:50;101039.88;;;22.19;51.74
78673;BME280;67988;60.086;30.354;2023-06-22T04:40:21;101039.88;;;22.19;50.98
78673;BME280;67988;60.086;30.354;2023-06-22T04:42:48;101043.44;;;22.20;51.02
78673;BME280;67988;60.086;30.354;2023-06-22T04:45:19;101038.38;;;22.17;50.46
78673;BME280;67988;60.086;30.354;2023-06-22T04:47:47;101044.63;;;22.17;50.63
78673;BME280;67988;60.086;30.354;2023-06-22T04:50:14;101039.66;;;22.21;50.29
78673;BME280;67988;60.086;30.354;2023-06-22T04:52:41;101039.75;;;22.27;50.45
78673;BME280;67988;60.086;30.354;2023-06-22T04:55:10;101026.69;;;22.31;50.29
78673;BME280;67988;60.086;30.354;2023-06-22T04:57:37;101034.81;;;22.45;49.89
78673;BME280;67988;60.086;30.354;2023-06-22T05:00:06;101025.69;;;22.53;49.71
78673;BME280;67988;60.086;30.354;2023-06-22T05:02:43;101022.72;;;22.63;49.46
78673;BME280;67988;60.086;30.354;2023-06-22T05:05:11;101021.97;;;22.69;48.88
78673;BME280;67988;60.086;30.354;2023-06-22T05:07:41;101015.50;;;22.84;48.20
78673;BME280;67988;60.086;30.354;2023-06-22T05:10:11;101011.69;;;23.00;48.30
78673;BME280;67988;60.086;30.354;2023-06-22T05:12:38;101007.47;;;23.19;47.23
78673;BME280;67988;60.086;30.354;2023-06-22T05:15:07;101009.28;;;23.33;47.43
78673;BME280;67988;60.086;30.354;2023-06-22T05:17:34;101005.31;;;23.35;46.94
78673;BME280;67988;60.086;30.354;2023-06-22T05:20:01;100997.53;;;23.47;46.73
78673;BME280;67988;60.086;30.354;2023-06-22T05:22:32;100997.44;;;23.62;46.04
78673;BME280;67988;60.086;30.354;2023-06-22T05:24:59;101005.84;;;23.67;45.44
78673;BME280;67988;60.086;30.354;2023-06-22T05:27:27;100988.41;;;23.55;45.28
78673;BME280;67988;60.086;30.354;2023-06-22T05:29:54;100996.38;;;23.56;45.18
78673;BME280;67988;60.086;30.354;2023-06-22T05:32:21;100990.72;;;23.58;45.26
78673;BME280;67988;60.086;30.354;2023-06-22T05:34:48;100993.25;;;23.59;45.28
78673;BME280;67988;60.086;30.354;2023-06-22T05:37:15;100969.97;;;23.50;45.14
78673;BME280;67988;60.086;30.354;2023-06-22T05:39:42;100982.72;;;23.77;44.78
78673;BME280;67988;60.086;30.354;2023-06-22T05:42:09;100967.28;;;23.85;44.67
78673;BME280;67988;60.086;30.354;2023-06-22T05:44:38;100977.25;;;24.05;44.38
78673;BME280;67988;60.086;30.354;2023-06-22T05:47:06;100968.66;;;24.08;43.63
78673;BME280;67988;60.086;30.354;2023-06-22T05:49:33;100959.13;;;24.19;43.76
78673;BME280;67988;60.086;30.354;2023-06-22T05:52:00;100950.06;;;24.12;43.19
78673;BME280;67988;60.086;30.354;2023-06-22T05:54:27;100916.31;;;23.93;43.36
78673;BME280;67988;60.086;30.354;2023-06-22T05:56:54;100942.66;;;23.93;43.24
78673;BME280;67988;60.086;30.354;2023-06-22T05:59:21;100935.53;;;23.92;43.39
78673;BME280;67988;60.086;30.354;2023-06-22T06:01:50;100944.22;;;24.08;43.29
78673;BME280;67988;60.086;30.354;2023-06-22T06:04:17;100935.41;;;24.06;43.16
78673;BME280;67988;60.086;30.354;2023-06-22T06:06:44;100920.16;;;24.05;43.03
78673;BME280;67988;60.086;30.354;2023-06-22T06:09:12;100949.56;;;24.30;42.77
78673;BME280;67988;60.086;30.354;2023-06-22T06:11:40;100947.47;;;24.32;43.02
78673;BME280;67988;60.086;30.354;2023-06-22T06:14:07;100945.41;;;24.40;42.80
78673;BME280;67988;60.086;30.354;2023-06-22T06:16:34;100929.50;;;24.37;42.40
78673;BME280;67988;60.086;30.354;2023-06-22T06:19:02;100924.72;;;24.46;42.50
78673;BME280;67988;60.086;30.354;2023-06-22T06:21:30;100930.41;;;24.64;41.80
78673;BME280;67988;60.086;30.354;2023-06-22T06:23:57;100925.63;;;24.79;41.65
78673;BME280;67988;60.086;30.354;2023-06-22T06:26:24;100916.44;;;24.80;41.70
78673;BME280;67988;60.086;30.354;2023-06-22T06:28:55;100924.41;;;24.95;41.21
78673;BME280;67988;60.086;30.354;2023-06-22T06:31:22;100907.03;;;24.89;41.50
78673;BME280;67988;60.086;30.354;2023-06-22T06:33:49;100920.66;;;24.96;41.17
78673;BME280;67988;60.086;30.354;2023-06-22T06:36:18;100909.34;;;24.99;40.69
78673;BME280;67988;60.086;30.354;2023-06-22T06:38:45;100904.94;;;24.91;40.49
78673;BME280;67988;60.086;30.354;2023-06-22T06:41:13;100891.94;;;24.87;40.73
78673;BME280;67988;60.086;30.354;2023-06-22T06:43:40;100919.19;;;25.00;40.62
78673;BME280;67988;60.086;30.354;2023-06-22T06:46:08;100914.38;;;25.02;40.55
78673;BME280;67988;60.086;30.354;2023-06-22T06:48:35;100919.19;;;25.00;40.60
78673;BME280;67988;60.086;30.354;2023-06-22T06:51:02;100897.97;;;24.82;40.55
78673;BME280;67988;60.086;30.354;2023-06-22T06:53:31;100910.19;;;24.99;40.17
78673;BME280;67988;60.086;30.354;2023-06-22T06:55:58;100879.81;;;24.89;40.49
78673;BME280;67988;60.086;30.354;2023-06-22T06:58:25;100914.78;;;25.12;40.94
78673;BME280;67988;60.086;30.354;2023-06-22T07:00:52;100889.44;;;24.98;40.95
78673;BME280;67988;60.086;30.354;2023-06-22T07:03:19;100914.59;;;25.14;40.76
78673;BME280;67988;60.086;30.354;2023-06-22T07:05:46;100909.56;;;25.24;40.63
78673;BME280;67988;60.086;30.354;2023-06-22T07:08:13;100907.25;;;25.34;40.44
78673;BME280;67988;60.086;30.354;2023-06-22T07:10:41;100906.81;;;25.43;40.38
78673;BME280;67988;60.086;30.354;2023-06-22T07:13:08;100896.09;;;25.49;40.01
78673;BME280;67988;60.086;30.354;2023-06-22T07:15:35;100888.97;;;25.48;40.39
78673;BME280;67988;60.086;30.354;2023-06-22T07:18:02;100899.91;;;25.61;40.10
78673;BME280;67988;60.086;30.354;2023-06-22T07:20:29;100893.81;;;25.59;40.16
78673;BME280;67988;60.086;30.354;2023-06-22T07:22:56;100880.19;;;25.59;40.55
78673;BME280;67988;60.086;30.354;2023-06-22T07:25:23;100894.81;;;25.77;40.39
78673;BME280;67988;60.086;30.354;2023-06-22T07:27:59;100845.63;;;25.46;38.81
78673;BME280;67988;60.086;30.354;2023-06-22T07:30:28;100888.31;;;25.85;39.16
78673;BME280;67988;60.086;30.354;2023-06-22T07:32:55;100876.94;;;25.95;38.03
78673;BME280;67988;60.086;30.354;2023-06-22T07:35:23;100878.81;;;26.01;37.84
78673;BME280;67988;60.086;30.354;2023-06-22T07:37:50;100879.59;;;26.08;37.41
78673;BME280;67988;60.086;30.354;2023-06-22T07:40:17;100874.09;;;26.14;37.18
78673;BME280;67988;60.086;30.354;2023-06-22T07:42:44;100855.47;;;26.11;37.35
78673;BME280;67988;60.086;30.354;2023-06-22T07:45:15;100867.41;;;26.23;36.30
78673;BME280;67988;60.086;30.354;2023-06-22T07:47:42;100868.22;;;26.17;35.91
78673;BME280;67988;60.086;30.354;2023-06-22T07:50:09;100864.25;;;26.13;35.81
78673;BME280;67988;60.086;30.354;2023-06-22T07:52:36;100861.50;;;26.27;35.69
78673;BME280;67988;60.086;30.354;2023-06-22T07:55:04;100857.94;;;26.26;35.85
78673;BME280;67988;60.086;30.354;2023-06-22T07:57:31;100866.91;;;26.33;36.19
78673;BME280;67988;60.086;30.354;2023-06-22T08:00:03;100835.47;;;26.24;35.75
78673;BME280;67988;60.086;30.354;2023-06-22T08:02:40;100841.50;;;26.39;35.73
78673;BME280;67988;60.086;30.354;2023-06-22T08:05:08;100857.88;;;26.64;35.86
78673;BME280;67988;60.086;30.354;2023-06-22T08:07:35;100851.34;;;26.72;35.52
78673;BME280;67988;60.086;30.354;2023-06-22T08:10:03;100847.25;;;26.81;35.53
78673;BME280;67988;60.086;30.354;2023-06-22T08:12:31;100846.19;;;26.88;34.88
78673;BME280;67988;60.086;30.354;2023-06-22T08:14:58;100838.91;;;26.76;33.97
78673;BME280;67988;60.086;30.354;2023-06-22T08:17:24;100840.00;;;26.99;34.55
78673;BME280;67988;60.086;30.354;2023-06-22T08:19:53;100830.63;;;27.14;33.83
78673;BME280;67988;60.086;30.354;2023-06-22T08:22:20;100839.53;;;27.27;33.67
78673;BME280;67988;60.086;30.354;2023-06-22T08:24:47;100830.50;;;27.27;33.46
78673;BME280;67988;60.086;30.354;2023-06-22T08:27:14;100829.06;;;27.42;32.26
78673;BME280;67988;60.086;30.354;2023-06-22T08:29:43;100824.16;;;27.51;32.01
78673;BME280;67988;60.086;30.354;2023-06-22T08:32:11;100816.09;;;27.56;32.22
78673;BME280;67988;60.086;30.354;2023-06-22T08:34:38;100818.06;;;27.67;32.20
78673;BME280;67988;60.086;30.354;2023-06-22T08:37:09;100789.38;;;27.58;32.19
78673;BME280;67988;60.086;30.354;2023-06-22T08:39:36;100819.03;;;27.91;32.02
78673;BME280;67988;60.086;30.354;2023-06-22T08:42:05;100810.19;;;28.07;31.99
78673;BME280;67988;60.086;30.354;2023-06-22T08:44:34;100785.78;;;28.06;32.09
78673;BME280;67988;60.086;30.354;2023-06-22T08:47:01;100785.16;;;28.22;31.92
78673;BME280;67988;60.086;30.354;2023-06-22T08:49:29;100792.97;;;28.48;32.12
78673;BME280;67988;60.086;30.354;2023-06-22T08:51:56;100767.22;;;28.38;32.20
78673;BME280;67988;60.086;30.354;2023-06-22T08:54:24;100797.44;;;28.73;31.63
78673;BME280;67988;60.086;30.354;2023-06-22T08:56:52;100792.34;;;28.88;31.64
78673;BME280;67988;60.086;30.354;2023-06-22T08:59:18;100793.78;;;29.02;31.83
78673;BME280;67988;60.086;30.354;2023-06-22T09:01:45;100778.84;;;29.21;31.17
78673;BME280;67988;60.086;30.354;2023-06-22T09:04:14;100758.72;;;29.16;30.71
78673;BME280;67988;60.086;30.354;2023-06-22T09:06:41;100790.28;;;29.53;30.27
78673;BME280;67988;60.086;30.354;2023-06-22T09:09:10;100769.16;;;29.65;30.00
78673;BME280;67988;60.086;30.354;2023-06-22T09:11:39;100786.84;;;29.86;30.12
78673;BME280;67988;60.086;30.354;2023-06-22T09:14:06;100790.88;;;29.95;29.55
78673;BME280;67988;60.086;30.354;2023-06-22T09:16:33;100786.69;;;30.04;28.95
78673;BME280;67988;60.086;30.354;2023-06-22T09:19:01;100791.03;;;30.33;28.88
78673;BME280;67988;60.086;30.354;2023-06-22T09:21:28;100781.53;;;30.53;28.60
78673;BME280;67988;60.086;30.354;2023-06-22T09:23:55;100773.69;;;30.78;28.18
78673;BME280;67988;60.086;30.354;2023-06-22T09:26:22;100762.63;;;31.06;28.09
78673;BME280;67988;60.086;30.354;2023-06-22T09:28:51;100775.00;;;31.26;27.56
78673;BME280;67988;60.086;30.354;2023-06-22T09:31:18;100771.81;;;31.34;27.70
78673;BME280;67988;60.086;30.354;2023-06-22T09:33:51;100775.19;;;31.19;27.51
78673;BME280;67988;60.086;30.354;2023-06-22T09:36:19;100767.84;;;31.25;27.61
78673;BME280;67988;60.086;30.354;2023-06-22T09:38:47;100772.69;;;31.17;27.58
78673;BME280;67988;60.086;30.354;2023-06-22T09:41:14;100763.81;;;31.32;27.35
78673;BME280;67988;60.086;30.354;2023-06-22T09:43:41;100753.44;;;31.39;27.71
78673;BME280;67988;60.086;30.354;2023-06-22T09:46:10;100754.28;;;31.40;27.57
78673;BME280;67988;60.086;30.354;2023-06-22T09:48:37;100731.75;;;31.43;27.21
78673;BME280;67988;60.086;30.354;2023-06-22T09:51:04;100745.53;;;31.65;27.22
78673;BME280;67988;60.086;30.354;2023-06-22T09:53:31;100746.75;;;31.74;27.10
78673;BME280;67988;60.086;30.354;2023-06-22T09:55:58;100746.06;;;31.62;27.61
78673;BME280;67988;60.086;30.354;2023-06-22T09:58:26;100715.59;;;31.25;27.42
78673;BME280;67988;60.086;30.354;2023-06-22T10:00:53;100751.06;;;31.26;27.14
78673;BME280;67988;60.086;30.354;2023-06-22T10:03:21;100738.56;;;30.97;27.77
78673;BME280;67988;60.086;30.354;2023-06-22T10:05:48;100749.72;;;31.07;27.88
78673;BME280;67988;60.086;30.354;2023-06-22T10:08:15;100742.19;;;31.19;27.99
78673;BME280;67988;60.086;30.354;2023-06-22T10:10:42;100740.72;;;30.95;28.10
78673;BME280;67988;60.086;30.354;2023-06-22T10:13:10;100744.06;;;30.47;28.45
78673;BME280;67988;60.086;30.354;2023-06-22T10:15:38;100730.44;;;30.52;28.65
78673;BME280;67988;60.086;30.354;2023-06-22T10:18:05;100727.75;;;30.73;28.43
78673;BME280;67988;60.086;30.354;2023-06-22T10:20:33;100722.09;;;30.80;28.32
78673;BME280;67988;60.086;30.354;2023-06-22T10:23:00;100721.28;;;30.63;28.66
78673;BME280;67988;60.086;30.354;2023-06-22T10:25:27;100727.59;;;30.63;28.36
78673;BME280;67988;60.086;30.354;2023-06-22T10:27:54;100737.97;;;30.28;27.21
78673;BME280;67988;60.086;30.354;2023-06-22T10:30:21;100719.41;;;30.35;27.27
78673;BME280;67988;60.086;30.354;2023-06-22T10:32:49;100681.50;;;30.32;27.41
78673;BME280;67988;60.086;30.354;2023-06-22T10:35:16;100698.06;;;30.54;27.82
78673;BME280;67988;60.086;30.354;2023-06-22T10:37:45;100704.63;;;30.53;27.24
78673;BME280;67988;60.086;30.354;2023-06-22T10:40:13;100691.81;;;30.42;27.92
78673;BME280;67988;60.086;30.354;2023-06-22T10:42:41;100683.56;;;30.42;28.05
78673;BME280;67988;60.086;30.354;2023-06-22T10:45:09;100686.16;;;30.65;28.90
78673;BME280;67988;60.086;30.354;2023-06-22T10:47:36;100678.88;;;30.75;28.88
78673;BME280;67988;60.086;30.354;2023-06-22T10:50:03;100693.97;;;30.56;28.97
78673;BME280;67988;60.086;30.354;2023-06-22T10:52:31;100679.75;;;30.59;28.21
78673;BME280;67988;60.086;30.354;2023-06-22T10:55:00;100687.03;;;30.87;27.87
78673;BME280;67988;60.086;30.354;2023-06-22T10:57:27;100678.50;;;30.89;27.91
78673;BME280;67988;60.086;30.354;2023-06-22T10:59:54;100686.09;;;30.98;27.75
78673;BME280;67988;60.086;30.354;2023-06-22T11:02:21;100658.22;;;31.11;27.80
78673;BME280;67988;60.086;30.354;2023-06-22T11:04:48;100670.53;;;31.74;27.10
78673;BME280;67988;60.086;30.354;2023-06-22T11:07:15;100665.19;;;31.89;26.33
78673;BME280;67988;60.086;30.354;2023-06-22T11:09:43;100652.78;;;31.92;26.69
78673;BME280;67988;60.086;30.354;2023-06-22T11:12:11;100653.78;;;31.81;26.88
78673;BME280;67988;60.086;30.354;2023-06-22T11:14:38;100626.75;;;31.73;26.38
78673;BME280;67988;60.086;30.354;2023-06-22T11:17:06;100643.28;;;32.05;26.88
78673;BME280;67988;60.086;30.354;2023-06-22T11:19:33;100650.34;;;32.22;26.22
78673;BME280;67988;60.086;30.354;2023-06-22T11:21:59;100655.50;;;31.87;26.51
78673;BME280;67988;60.086;30.354;2023-06-22T11:24:26;100638.78;;;31.18;27.91
78673;BME280;67988;60.086;30.354;2023-06-22T11:26:53;100657.88;;;30.86;29.06
78673;BME280;67988;60.086;30.354;2023-06-22T11:29:22;100665.16;;;30.75;29.13
78673;BME280;67988;60.086;30.354;2023-06-22T11:31:49;100658.94;;;31.24;28.62
78673;BME280;67988;60.086;30.354;2023-06-22T11:34:16;100648.28;;;30.89;29.63
78673;BME280;67988;60.086;30.354;2023-06-22T11:36:44;100635.78;;;30.98;29.26
78673;BME280;67988;60.086;30.354;2023-06-22T11:39:12;100622.53;;;30.95;29.47
78673;BME280;67988;60.086;30.354;2023-06-22T11:41:40;100609.53;;;31.07;29.21
78673;BME280;67988;60.086;30.354;2023-06-22T11:44:07;100647.06;;;31.01;29.79
78673;BME280;67988;60.086;30.354;2023-06-22T11:46:36;100647.09;;;30.63;30.39
78673;BME280;67988;60.086;30.354;2023-06-22T11:49:03;100645.81;;;30.32;31.47
78673;BME280;67988;60.086;30.354;2023-06-22T11:51:30;100644.38;;;30.29;31.15
78673;BME280;67988;60.086;30.354;2023-06-22T11:53:58;100642.97;;;30.44;30.26
78673;BME280;67988;60.086;30.354;2023-06-22T11:56:25;100642.28;;;30.37;30.65
78673;BME280;67988;60.086;30.354;2023-06-22T11:58:53;100640.63;;;30.35;30.81
78673;BME280;67988;60.086;30.354;2023-06-22T12:01:20;100639.41;;;30.10;31.58
78673;BME280;67988;60.086;30.354;2023-06-22T12:03:49;100642.38;;;30.08;31.97
78673;BME280;67988;60.086;30.354;2023-06-22T12:06:17;100619.13;;;29.94;32.39
78673;BME280;67988;60.086;30.354;2023-06-22T12:08:44;100644.78;;;30.38;31.78
78673;BME280;67988;60.086;30.354;2023-06-22T12:11:11;100642.63;;;30.57;31.52
78673;BME280;67988;60.086;30.354;2023-06-22T12:13:38;100625.75;;;30.48;30.86
78673;BME280;67988;60.086;30.354;2023-06-22T12:16:05;100630.31;;;30.43;31.09
78673;BME280;67988;60.086;30.354;2023-06-22T12:18:33;100643.63;;;30.34;31.19
78673;BME280;67988;60.086;30.354;2023-06-22T12:21:01;100637.41;;;30.22;31.46
78673;BME280;67988;60.086;30.354;2023-06-22T12:23:28;100634.66;;;30.05;31.41
78673;BME280;67988;60.086;30.354;2023-06-22T12:25:55;100627.69;;;29.86;31.36
78673;BME280;67988;60.086;30.354;2023-06-22T12:28:22;100631.78;;;29.83;31.32
78673;BME280;67988;60.086;30.354;2023-06-22T12:30:50;100626.47;;;29.77;31.43
78673;BME280;67988;60.086;30.354;2023-06-22T12:33:17;100625.41;;;29.49;31.59
78673;BME280;67988;60.086;30.354;2023-06-22T12:35:45;100631.00;;;29.55;31.46
78673;BME280;67988;60.086;30.354;2023-06-22T12:38:15;100627.66;;;29.52;31.51
78673;BME280;67988;60.086;30.354;2023-06-22T12:40:42;100638.97;;;29.56;32.07
78673;BME280;67988;60.086;30.354;2023-06-22T12:43:09;100601.56;;;29.50;32.11
78673;BME280;67988;60.086;30.354;2023-06-22T12:45:36;100617.31;;;29.71;32.54